Time;durP1;ratioP1;P1;durP2;ratioP2;P2;SDS_P1;SDS_P2;PMS_P1;PMS_P2;Temp;Humidity;BMP_temperature;BMP_pressure;BME280_temperature;BME280_humidity;BME280_pressure;Samples;Min_cycle;Max_cycle;Signal;HPM_P1;HPM_P2
2023/09/11 00:00:57;;;;;;;;;;;24.50;51.60;;;;;;5054495;28;19933;-60
2023/09/11 00:03:24;;;;;;;;;;;24.50;51.60;;;;;;5054345;28;19976;-60
2023/09/11 00:05:51;;;;;;;;;;;24.50;51.50;;;;;;5054569;28;19929;-60
2023/09/11 00:08:31;;;;;;;;;;;24.50;51.60;;;;;;5054128;28;20400;-60
2023/09/11 00:10:58;;;;;;;;;;;24.60;51.60;;;;;;5054270;28;19989;-60
2023/09/11 00:13:26;;;;;;;;;;;24.50;51.50;;;;;;5054296;28;19952;-60
2023/09/11 00:15:53;;;;;;;;;;;24.60;51.60;;;;;;5053212;28;19924;-60
2023/09/11 00:18:20;;;;;;;;;;;24.50;51.50;;;;;;5054296;28;19960;-60
2023/09/11 00:20:47;;;;;;;;;;;24.50;51.50;;;;;;5054589;28;19925;-60
2023/09/11 00:23:14;;;;;;;;;;;24.50;51.60;;;;;;5053457;28;20019;-60
2023/09/11 00:25:41;;;;;;;;;;;24.50;51.60;;;;;;5054278;28;20328;-60
2023/09/11 00:28:08;;;;;;;;;;;24.50;51.60;;;;;;5054000;28;19971;-62
2023/09/11 00:30:38;;;;;;;;;;;24.50;51.60;;;;;;5053582;28;19931;-60
2023/09/11 00:33:05;;;;;;;;;;;24.50;51.60;;;;;;5053202;28;19925;-60
2023/09/11 00:35:32;;;;;;;;;;;24.50;51.70;;;;;;5053712;28;19925;-60
2023/09/11 00:37:59;;;;;;;;;;;24.50;51.70;;;;;;5054130;28;20247;-60
2023/09/11 00:40:26;;;;;;;;;;;24.50;51.70;;;;;;5053189;28;19925;-60
2023/09/11 00:42:53;;;;;;;;;;;24.50;51.70;;;;;;5053480;28;20339;-60
2023/09/11 00:45:20;;;;;;;;;;;24.50;51.70;;;;;;5053122;28;20023;-60
2023/09/11 00:47:47;;;;;;;;;;;24.50;51.70;;;;;;5053535;28;20395;-60
2023/09/11 00:50:16;;;;;;;;;;;24.50;51.70;;;;;;5053044;28;19933;-61
2023/09/11 00:52:43;;;;;;;;;;;24.50;51.70;;;;;;5053698;28;19929;-60
2023/09/11 00:55:10;;;;;;;;;;;24.50;51.80;;;;;;5053235;28;19929;-60
2023/09/11 00:57:37;;;;;;;;;;;24.50;51.80;;;;;;5053703;28;20331;-60
2023/09/11 01:00:05;;;;;;;;;;;24.50;51.80;;;;;;5053228;28;19979;-60
2023/09/11 01:02:33;;;;;;;;;;;24.50;51.80;;;;;;5052583;28;19932;-60
2023/09/11 01:05:00;;;;;;;;;;;24.40;51.70;;;;;;5053056;28;19967;-60
2023/09/11 01:07:27;;;;;;;;;;;24.50;51.80;;;;;;5052506;28;19971;-60
2023/09/11 01:09:54;;;;;;;;;;;24.40;51.80;;;;;;5052649;28;19956;-60
2023/09/11 01:12:21;;;;;;;;;;;24.50;51.80;;;;;;5052483;28;19925;-60
2023/09/11 01:14:48;;;;;;;;;;;24.50;51.80;;;;;;5053064;28;19928;-60
2023/09/11 01:17:24;;;;;;;;;;;24.50;51.80;;;;;;5052921;28;20026;-60
2023/09/11 01:20:12;;;;;;;;;;;24.40;51.80;;;;;;5051204;28;20335;-60
2023/09/11 01:22:55;;;;;;;;;;;24.40;51.70;;;;;;5053074;28;19936;-60
2023/09/11 01:25:41;;;;;;;;;;;24.40;51.70;;;;;;5053409;28;19956;-61
2023/09/11 01:28:29;;;;;;;;;;;24.50;51.70;;;;;;5052900;28;19979;-60
2023/09/11 01:30:58;;;;;;;;;;;24.50;51.70;;;;;;5053422;28;20377;-60
2023/09/11 01:33:25;;;;;;;;;;;24.50;51.70;;;;;;5052616;28;19939;-60
2023/09/11 01:35:52;;;;;;;;;;;24.50;51.70;;;;;;5053094;28;19925;-60
2023/09/11 01:38:21;;;;;;;;;;;24.50;51.70;;;;;;5052142;28;20205;-61
2023/09/11 01:40:49;;;;;;;;;;;24.50;51.70;;;;;;5053238;28;19925;-60
2023/09/11 01:43:18;;;;;;;;;;;24.50;51.80;;;;;;5052368;28;19924;-60
2023/09/11 01:45:45;;;;;;;;;;;24.50;51.80;;;;;;5052689;28;20373;-60
2023/09/11 01:48:13;;;;;;;;;;;24.50;51.80;;;;;;5053127;28;19928;-60
2023/09/11 01:50:40;;;;;;;;;;;24.50;51.80;;;;;;5052581;28;19924;-60
2023/09/11 01:53:08;;;;;;;;;;;24.40;51.80;;;;;;5052780;28;20351;-61
2023/09/11 01:55:35;;;;;;;;;;;24.50;51.80;;;;;;5052289;28;19938;-61
2023/09/11 01:58:02;;;;;;;;;;;24.50;51.90;;;;;;5052868;28;19979;-61
2023/09/11 02:00:29;;;;;;;;;;;24.50;51.90;;;;;;5052153;28;20359;-61
2023/09/11 02:02:56;;;;;;;;;;;24.40;51.80;;;;;;5052152;28;19925;-61
2023/09/11 02:05:23;;;;;;;;;;;24.40;51.80;;;;;;5067901;28;20019;-61
2023/09/11 02:07:53;;;;;;;;;;;24.40;51.80;;;;;;5052547;28;19949;-61
2023/09/11 02:10:20;;;;;;;;;;;24.40;51.90;;;;;;5052788;28;19964;-61
2023/09/11 02:12:47;;;;;;;;;;;24.40;51.90;;;;;;5052465;28;19924;-61
2023/09/11 02:15:14;;;;;;;;;;;24.40;51.90;;;;;;5052667;28;20288;-61
2023/09/11 02:17:41;;;;;;;;;;;24.40;51.90;;;;;;5052807;28;19924;-61
2023/09/11 02:20:08;;;;;;;;;;;24.40;51.90;;;;;;5052617;28;20325;-60
2023/09/11 02:22:35;;;;;;;;;;;24.40;51.90;;;;;;5054637;28;20341;-61
2023/09/11 02:25:02;;;;;;;;;;;24.40;51.90;;;;;;5056482;28;19925;-61
2023/09/11 02:27:29;;;;;;;;;;;24.40;51.90;;;;;;5056037;28;19929;-61
2023/09/11 02:29:56;;;;;;;;;;;24.40;51.90;;;;;;5055153;28;19964;-61
2023/09/11 02:32:24;;;;;;;;;;;24.40;51.90;;;;;;5056223;28;20361;-61
2023/09/11 02:34:51;;;;;;;;;;;24.40;51.90;;;;;;5056233;28;19925;-61
2023/09/11 02:37:18;;;;;;;;;;;24.40;51.90;;;;;;5054584;28;20015;-61
2023/09/11 02:39:45;;;;;;;;;;;24.40;51.90;;;;;;5054573;28;19925;-61
2023/09/11 02:42:12;;;;;;;;;;;24.40;51.90;;;;;;5055544;28;20444;-61
2023/09/11 02:44:39;;;;;;;;;;;24.40;51.90;;;;;;5055726;28;20464;-61
2023/09/11 02:47:06;;;;;;;;;;;24.40;51.90;;;;;;5055818;28;20449;-61
2023/09/11 02:49:33;;;;;;;;;;;24.40;51.90;;;;;;5054477;28;19971;-61
2023/09/11 02:52:00;;;;;;;;;;;24.40;51.90;;;;;;5055468;28;19970;-61
2023/09/11 02:54:27;;;;;;;;;;;24.40;51.80;;;;;;5054494;28;19925;-61
2023/09/11 02:56:54;;;;;;;;;;;24.50;51.90;;;;;;5055707;28;19925;-61
2023/09/11 02:59:21;;;;;;;;;;;24.50;51.90;;;;;;5054405;28;19970;-61
2023/09/11 03:01:48;;;;;;;;;;;24.40;51.80;;;;;;5054746;28;19972;-61
2023/09/11 03:04:15;;;;;;;;;;;24.40;51.90;;;;;;5055509;28;20442;-61
2023/09/11 03:06:42;;;;;;;;;;;24.40;51.90;;;;;;5055677;28;20028;-61
2023/09/11 03:09:09;;;;;;;;;;;24.40;51.90;;;;;;5055696;28;19929;-61
2023/09/11 03:11:36;;;;;;;;;;;24.40;51.90;;;;;;5054653;28;19925;-61
2023/09/11 03:14:04;;;;;;;;;;;24.40;51.90;;;;;;5054343;28;19932;-61
2023/09/11 03:16:31;;;;;;;;;;;24.40;51.90;;;;;;5055340;28;19932;-61
2023/09/11 03:18:57;;;;;;;;;;;24.40;51.90;;;;;;5055141;28;19933;-61
2023/09/11 03:21:24;;;;;;;;;;;24.40;51.90;;;;;;5054196;28;19925;-61
2023/09/11 03:23:51;;;;;;;;;;;24.40;52.00;;;;;;5055474;28;20011;-61
2023/09/11 03:26:19;;;;;;;;;;;24.40;52.00;;;;;;5054161;28;19979;-61
2023/09/11 03:28:50;;;;;;;;;;;24.40;52.00;;;;;;5037171;28;20037;-61
2023/09/11 03:31:17;;;;;;;;;;;24.30;52.00;;;;;;5054781;28;19931;-61
2023/09/11 03:33:44;;;;;;;;;;;24.40;52.00;;;;;;5053506;28;19939;-61
2023/09/11 03:36:16;;;;;;;;;;;24.40;52.00;;;;;;5048353;28;19972;-61
2023/09/11 03:38:43;;;;;;;;;;;24.30;52.00;;;;;;5043349;28;20365;-61
2023/09/11 03:41:11;;;;;;;;;;;24.40;52.10;;;;;;5044558;28;20397;-61
2023/09/11 03:43:38;;;;;;;;;;;24.40;52.00;;;;;;5048933;28;19929;-61
2023/09/11 03:46:05;;;;;;;;;;;24.30;52.00;;;;;;5044776;28;19950;-61
2023/09/11 03:48:32;;;;;;;;;;;24.30;52.00;;;;;;5046311;28;19994;-61
2023/09/11 03:50:59;;;;;;;;;;;24.30;52.00;;;;;;5054450;28;19925;-61
2023/09/11 03:53:26;;;;;;;;;;;24.40;52.10;;;;;;5053807;28;19924;-61
2023/09/11 03:55:53;;;;;;;;;;;24.30;52.00;;;;;;5054540;28;19947;-61
2023/09/11 03:58:20;;;;;;;;;;;24.30;52.00;;;;;;5054697;28;19928;-61
2023/09/11 04:00:47;;;;;;;;;;;24.30;52.20;;;;;;5054159;28;19929;-61
2023/09/11 04:03:14;;;;;;;;;;;24.30;52.00;;;;;;5053819;28;19932;-61
2023/09/11 04:05:41;;;;;;;;;;;24.40;52.00;;;;;;5054755;28;20003;-61
2023/09/11 04:08:08;;;;;;;;;;;24.40;52.00;;;;;;5054358;28;20007;-61
2023/09/11 04:10:35;;;;;;;;;;;24.40;52.00;;;;;;5054389;28;19929;-62
2023/09/11 04:13:02;;;;;;;;;;;24.40;51.90;;;;;;5053796;28;19925;-61
2023/09/11 04:15:29;;;;;;;;;;;24.40;51.90;;;;;;5054135;28;19970;-61
2023/09/11 04:17:57;;;;;;;;;;;24.40;51.90;;;;;;5053825;28;19925;-61
2023/09/11 04:20:24;;;;;;;;;;;24.40;51.90;;;;;;5046864;28;20015;-61
2023/09/11 04:22:51;;;;;;;;;;;24.40;51.90;;;;;;5043104;28;20019;-61
2023/09/11 04:25:18;;;;;;;;;;;24.40;51.90;;;;;;5043484;28;20329;-61
2023/09/11 04:27:45;;;;;;;;;;;24.40;51.90;;;;;;5044350;28;20377;-60
2023/09/11 04:30:12;;;;;;;;;;;24.40;52.00;;;;;;5047925;28;19925;-61
2023/09/11 04:32:39;;;;;;;;;;;24.40;52.00;;;;;;5043703;28;19925;-61
2023/09/11 04:35:06;;;;;;;;;;;24.30;51.90;;;;;;5047209;28;19967;-61
2023/09/11 04:37:34;;;;;;;;;;;24.30;51.90;;;;;;5054171;28;19932;-60
2023/09/11 04:40:01;;;;;;;;;;;24.30;51.90;;;;;;5056045;28;20191;-61
2023/09/11 04:42:28;;;;;;;;;;;24.20;51.90;;;;;;5052774;28;19925;-60
2023/09/11 04:44:58;;;;;;;;;;;24.10;52.20;;;;;;5057511;28;20028;-61
2023/09/11 04:47:27;;;;;;;;;;;23.90;52.40;;;;;;5042476;28;19929;-60
2023/09/11 04:49:54;;;;;;;;;;;23.60;52.80;;;;;;5050669;28;19924;-61
2023/09/11 04:52:21;;;;;;;;;;;23.40;52.50;;;;;;5044452;28;19975;-61
2023/09/11 04:54:48;;;;;;;;;;;23.10;51.10;;;;;;5043550;28;20388;-60
2023/09/11 04:57:15;;;;;;;;;;;22.80;50.10;;;;;;5043523;28;20032;-61
2023/09/11 04:59:42;;;;;;;;;;;22.50;49.80;;;;;;5044402;28;19925;-60
2023/09/11 05:02:11;;;;;;;;;;;22.20;49.50;;;;;;5040830;28;19929;-60
2023/09/11 05:04:38;;;;;;;;;;;21.90;50.00;;;;;;5042601;28;20441;-60
2023/09/11 05:07:05;;;;;;;;;;;21.60;50.10;;;;;;5043743;28;19971;-60
2023/09/11 05:09:32;;;;;;;;;;;21.30;50.80;;;;;;5041478;28;19959;-60
2023/09/11 05:11:59;;;;;;;;;;;21.00;51.30;;;;;;5042515;28;20292;-60
2023/09/11 05:14:26;;;;;;;;;;;20.80;51.30;;;;;;5043201;28;19932;-60
2023/09/11 05:16:55;;;;;;;;;;;20.60;50.00;;;;;;5045136;28;19924;-62
2023/09/11 05:19:23;;;;;;;;;;;20.40;52.10;;;;;;5042038;28;19947;-62
2023/09/11 05:21:50;;;;;;;;;;;20.20;51.90;;;;;;5044226;28;19936;-61
2023/09/11 05:24:17;;;;;;;;;;;20.00;51.00;;;;;;5039555;28;19933;-62
2023/09/11 05:26:44;;;;;;;;;;;19.90;50.50;;;;;;5039949;28;19937;-62
2023/09/11 05:29:11;;;;;;;;;;;19.80;53.40;;;;;;5037137;28;19929;-62
2023/09/11 05:31:39;;;;;;;;;;;19.70;52.40;;;;;;5041048;28;20287;-62
2023/09/11 05:34:06;;;;;;;;;;;19.60;52.80;;;;;;5045499;28;19929;-62
2023/09/11 05:36:33;;;;;;;;;;;19.50;53.30;;;;;;5035989;28;20381;-62
2023/09/11 05:39:00;;;;;;;;;;;19.40;53.00;;;;;;5042602;28;19928;-62
2023/09/11 05:41:27;;;;;;;;;;;19.30;52.30;;;;;;5041895;28;19936;-63
2023/09/11 05:43:55;;;;;;;;;;;19.30;52.00;;;;;;5042630;28;19928;-61
2023/09/11 05:46:22;;;;;;;;;;;19.30;53.70;;;;;;5034488;28;20377;-61
2023/09/11 05:48:49;;;;;;;;;;;19.20;52.30;;;;;;5044462;28;19925;-61
2023/09/11 05:51:16;;;;;;;;;;;19.20;53.10;;;;;;5041069;28;20048;-61
2023/09/11 05:53:43;;;;;;;;;;;19.10;54.20;;;;;;5041789;28;19940;-62
2023/09/11 05:56:11;;;;;;;;;;;19.10;54.90;;;;;;5041785;28;19933;-63
2023/09/11 05:58:38;;;;;;;;;;;19.10;52.70;;;;;;5043499;28;19995;-62
2023/09/11 06:01:06;;;;;;;;;;;19.00;53.50;;;;;;5045105;28;20011;-63
2023/09/11 06:03:33;;;;;;;;;;;19.00;54.20;;;;;;5042297;28;19976;-67
2023/09/11 06:06:00;;;;;;;;;;;19.00;52.60;;;;;;5044395;28;19925;-63
2023/09/11 06:08:28;;;;;;;;;;;18.90;52.90;;;;;;5043128;28;20385;-64
2023/09/11 06:10:55;;;;;;;;;;;19.00;56.10;;;;;;5043119;28;19933;-62
2023/09/11 06:13:22;;;;;;;;;;;19.00;53.30;;;;;;5048710;28;19933;-62
2023/09/11 06:15:49;;;;;;;;;;;19.00;53.30;;;;;;5046490;28;19924;-61
2023/09/11 06:18:16;;;;;;;;;;;19.00;53.80;;;;;;5041419;28;19933;-62
2023/09/11 06:20:44;;;;;;;;;;;19.00;53.80;;;;;;5046559;28;19925;-61
2023/09/11 06:23:12;;;;;;;;;;;18.90;53.10;;;;;;5041395;28;19933;-63
2023/09/11 06:25:39;;;;;;;;;;;18.90;54.60;;;;;;5042819;28;20473;-63
2023/09/11 06:28:06;;;;;;;;;;;18.90;54.40;;;;;;5044562;28;19992;-64
2023/09/11 06:30:34;;;;;;;;;;;18.90;53.60;;;;;;5042454;28;19941;-63
2023/09/11 06:33:01;;;;;;;;;;;18.80;52.90;;;;;;5043592;28;20019;-63
2023/09/11 06:35:28;;;;;;;;;;;18.80;54.70;;;;;;5046492;28;19944;-62
2023/09/11 06:37:55;;;;;;;;;;;18.80;54.80;;;;;;5046427;28;19935;-63
2023/09/11 06:40:23;;;;;;;;;;;18.80;53.90;;;;;;5046827;28;19928;-64
2023/09/11 06:42:53;;;;;;;;;;;18.80;54.20;;;;;;5043658;28;19928;-62
2023/09/11 06:45:20;;;;;;;;;;;18.80;53.70;;;;;;5042736;28;19929;-62
2023/09/11 06:47:47;;;;;;;;;;;18.80;53.60;;;;;;5046382;28;21345;-62
2023/09/11 06:50:15;;;;;;;;;;;18.80;53.50;;;;;;5043580;28;19948;-62
2023/09/11 06:52:41;;;;;;;;;;;18.80;54.00;;;;;;5048149;28;19933;-63
2023/09/11 06:55:08;;;;;;;;;;;18.80;54.00;;;;;;5039874;28;19984;-62
2023/09/11 06:57:39;;;;;;;;;;;18.70;54.60;;;;;;5064859;28;19972;-63
2023/09/11 07:00:11;;;;;;;;;;;18.70;54.50;;;;;;5043465;28;19999;-63
2023/09/11 07:02:46;;;;;;;;;;;18.70;55.70;;;;;;5048561;28;19937;-63
2023/09/11 07:05:13;;;;;;;;;;;18.70;54.80;;;;;;5051483;28;19925;-63
2023/09/11 07:07:40;;;;;;;;;;;18.70;56.00;;;;;;5046259;28;20035;-62
2023/09/11 07:10:09;;;;;;;;;;;18.70;55.80;;;;;;5045631;28;20068;-63
2023/09/11 07:12:39;;;;;;;;;;;18.60;55.10;;;;;;5042155;28;20391;-62
2023/09/11 07:15:06;;;;;;;;;;;18.60;54.50;;;;;;5044984;28;20014;-63
2023/09/11 07:17:33;;;;;;;;;;;18.60;55.60;;;;;;5046481;28;19943;-63
2023/09/11 07:20:01;;;;;;;;;;;18.50;56.40;;;;;;5047105;28;20027;-63
2023/09/11 07:22:28;;;;;;;;;;;18.50;57.50;;;;;;5042732;28;20360;-64
2023/09/11 07:24:55;;;;;;;;;;;18.40;57.90;;;;;;5044926;28;19933;-63
2023/09/11 07:27:22;;;;;;;;;;;18.40;58.70;;;;;;5042251;28;20023;-63
2023/09/11 07:29:49;;;;;;;;;;;18.40;58.70;;;;;;5044871;28;19929;-63
2023/09/11 07:32:16;;;;;;;;;;;18.50;57.90;;;;;;5045197;28;19933;-64
2023/09/11 07:34:43;;;;;;;;;;;18.50;59.10;;;;;;5045514;28;20292;-63
2023/09/11 07:37:10;;;;;;;;;;;18.50;58.80;;;;;;5045873;28;20017;-63
2023/09/11 07:39:37;;;;;;;;;;;18.50;58.00;;;;;;5044512;28;19936;-61
2023/09/11 07:42:04;;;;;;;;;;;18.50;58.10;;;;;;5044437;28;19935;-62
2023/09/11 07:44:31;;;;;;;;;;;18.60;57.10;;;;;;5047195;28;19929;-62
2023/09/11 07:46:58;;;;;;;;;;;18.60;58.90;;;;;;5045785;28;19933;-64
2023/09/11 07:49:26;;;;;;;;;;;18.60;58.20;;;;;;5044201;28;20010;-64
2023/09/11 07:51:52;;;;;;;;;;;18.60;57.90;;;;;;5045396;28;19983;-63
2023/09/11 07:54:21;;;;;;;;;;;18.60;58.20;;;;;;5055564;28;19986;-64
2023/09/11 07:56:48;;;;;;;;;;;18.70;57.50;;;;;;5050379;28;19974;-63
2023/09/11 07:59:15;;;;;;;;;;;18.60;58.00;;;;;;5043702;28;19979;-63
2023/09/11 08:01:42;;;;;;;;;;;18.70;58.40;;;;;;5025686;28;20017;-64
2023/09/11 08:04:09;;;;;;;;;;;18.70;59.10;;;;;;5046336;28;19925;-63
2023/09/11 08:06:36;;;;;;;;;;;18.70;58.50;;;;;;5044712;28;19932;-64
2023/09/11 08:09:03;;;;;;;;;;;18.80;59.20;;;;;;5043549;28;19932;-64
2023/09/11 08:11:31;;;;;;;;;;;18.70;60.00;;;;;;5042822;28;19925;-62
2023/09/11 08:13:58;;;;;;;;;;;18.70;58.50;;;;;;5045457;28;20395;-62
2023/09/11 08:16:25;;;;;;;;;;;18.70;60.80;;;;;;5043797;28;19939;-64
2023/09/11 08:18:53;;;;;;;;;;;18.70;60.90;;;;;;5042254;28;20288;-65
2023/09/11 08:21:21;;;;;;;;;;;18.70;60.60;;;;;;5041624;28;20321;-65
2023/09/11 08:23:48;;;;;;;;;;;18.70;61.50;;;;;;5041527;28;20373;-63
2023/09/11 08:26:16;;;;;;;;;;;18.80;61.70;;;;;;5044682;28;19940;-63
2023/09/11 08:28:42;;;;;;;;;;;18.80;61.20;;;;;;5040258;28;20024;-64
2023/09/11 08:31:10;;;;;;;;;;;18.90;61.50;;;;;;5039737;28;19967;-61
2023/09/11 08:33:37;;;;;;;;;;;18.90;61.60;;;;;;5042192;28;19940;-65
2023/09/11 08:36:21;;;;;;;;;;;18.90;62.40;;;;;;5044061;28;19956;-63
2023/09/11 08:38:48;;;;;;;;;;;19.00;62.30;;;;;;5042765;28;19935;-62
2023/09/11 08:41:17;;;;;;;;;;;19.00;62.00;;;;;;5050504;28;19932;-63
2023/09/11 08:43:44;;;;;;;;;;;19.10;62.00;;;;;;5047276;28;19924;-65
2023/09/11 08:46:14;;;;;;;;;;;19.10;62.10;;;;;;5047458;28;19929;-63
2023/09/11 08:48:43;;;;;;;;;;;19.10;62.10;;;;;;5043467;28;19940;-62
2023/09/11 08:51:20;;;;;;;;;;;19.20;62.70;;;;;;5043951;28;19975;-64
2023/09/11 08:53:50;;;;;;;;;;;19.20;62.80;;;;;;5044093;28;19994;-64
2023/09/11 08:56:17;;;;;;;;;;;19.30;62.40;;;;;;5044789;28;20301;-65
2023/09/11 08:58:45;;;;;;;;;;;19.40;61.80;;;;;;5040756;28;20400;-59
2023/09/11 09:01:12;;;;;;;;;;;19.40;62.50;;;;;;5045622;28;19936;-63
2023/09/11 09:03:40;;;;;;;;;;;19.50;61.60;;;;;;5042264;28;20335;-62
2023/09/11 09:06:07;;;;;;;;;;;19.50;61.80;;;;;;5044619;28;20031;-64
2023/09/11 09:08:35;;;;;;;;;;;19.50;62.00;;;;;;5043346;28;19932;-63
2023/09/11 09:11:02;;;;;;;;;;;19.60;62.40;;;;;;5046601;28;20423;-64
2023/09/11 09:13:34;;;;;;;;;;;19.60;62.60;;;;;;5043803;28;19933;-64
2023/09/11 09:16:02;;;;;;;;;;;19.70;62.30;;;;;;5051380;28;19940;-63
2023/09/11 09:18:29;;;;;;;;;;;19.70;62.40;;;;;;5045667;28;19980;-64
2023/09/11 09:20:56;;;;;;;;;;;19.80;62.30;;;;;;5042401;28;19925;-67
2023/09/11 09:23:39;;;;;;;;;;;19.90;61.90;;;;;;5038890;28;19932;-66
2023/09/11 09:26:08;;;;;;;;;;;19.90;61.80;;;;;;5038191;28;20276;-64
2023/09/11 09:28:42;;;;;;;;;;;20.00;61.60;;;;;;5041473;28;19928;-67
2023/09/11 09:31:12;;;;;;;;;;;20.00;61.50;;;;;;5045165;28;19956;-66
2023/09/11 09:33:40;;;;;;;;;;;20.00;61.30;;;;;;5048268;28;20028;-67
2023/09/11 09:36:08;;;;;;;;;;;20.00;61.10;;;;;;5051945;28;19924;-66
2023/09/11 09:38:35;;;;;;;;;;;20.10;60.70;;;;;;5050592;28;19972;-66
2023/09/11 09:41:10;;;;;;;;;;;20.10;60.60;;;;;;5046520;28;20292;-67
2023/09/11 09:43:37;;;;;;;;;;;20.20;60.70;;;;;;5046518;28;20020;-67
2023/09/11 09:46:18;;;;;;;;;;;20.20;60.90;;;;;;5044909;28;19929;-66
2023/09/11 09:48:45;;;;;;;;;;;20.20;60.40;;;;;;5046753;28;19944;-67
2023/09/11 09:51:13;;;;;;;;;;;20.20;60.00;;;;;;5048666;28;20380;-66
2023/09/11 09:53:42;;;;;;;;;;;20.20;60.10;;;;;;5044717;28;20404;-68
2023/09/11 09:56:10;;;;;;;;;;;20.20;59.90;;;;;;5045066;28;20361;-68
2023/09/11 09:58:39;;;;;;;;;;;20.30;60.00;;;;;;5046025;28;20023;-67
2023/09/11 10:01:08;;;;;;;;;;;20.30;60.20;;;;;;5047074;28;20018;-67
2023/09/11 10:03:52;;;;;;;;;;;20.30;60.00;;;;;;5047956;28;19977;-67
2023/09/11 10:06:21;;;;;;;;;;;20.30;60.00;;;;;;5046357;28;19976;-67
2023/09/11 10:09:08;;;;;;;;;;;20.30;59.50;;;;;;5050784;28;19982;-64
2023/09/11 10:11:36;;;;;;;;;;;20.30;59.20;;;;;;5051783;28;20015;-65
2023/09/11 10:14:06;;;;;;;;;;;20.30;58.90;;;;;;5047191;28;20407;-65
2023/09/11 10:16:33;;;;;;;;;;;20.30;58.10;;;;;;5048440;28;19972;-66
2023/09/11 10:19:01;;;;;;;;;;;20.30;57.50;;;;;;5049976;28;20045;-65
2023/09/11 10:21:29;;;;;;;;;;;20.30;57.70;;;;;;5046739;28;20495;-65
2023/09/11 10:23:56;;;;;;;;;;;20.30;57.30;;;;;;5047885;28;19935;-66
2023/09/11 10:26:45;;;;;;;;;;;20.20;57.80;;;;;;5050530;28;19928;-65
2023/09/11 10:29:34;;;;;;;;;;;20.20;58.10;;;;;;5050692;28;20249;-65
2023/09/11 10:32:04;;;;;;;;;;;20.20;57.60;;;;;;5043905;28;20356;-66
2023/09/11 10:34:32;;;;;;;;;;;20.20;58.10;;;;;;5048106;28;19928;-65
2023/09/11 10:37:00;;;;;;;;;;;20.20;57.90;;;;;;5049530;28;20387;-66
2023/09/11 10:39:27;;;;;;;;;;;20.20;58.10;;;;;;5048371;28;20384;-65
2023/09/11 10:41:54;;;;;;;;;;;20.20;57.90;;;;;;5045870;28;19932;-65
2023/09/11 10:44:21;;;;;;;;;;;20.20;58.10;;;;;;5051110;28;19960;-66
2023/09/11 10:46:48;;;;;;;;;;;20.20;58.10;;;;;;5048931;28;19983;-65
2023/09/11 10:49:17;;;;;;;;;;;20.20;57.80;;;;;;5049179;28;19940;-65
2023/09/11 10:51:47;;;;;;;;;;;20.20;57.20;;;;;;5047361;28;21334;-65
2023/09/11 10:54:16;;;;;;;;;;;20.20;57.30;;;;;;5043489;28;19925;-66
2023/09/11 10:56:43;;;;;;;;;;;20.20;58.20;;;;;;5045863;28;20309;-70
2023/09/11 10:59:11;;;;;;;;;;;20.20;57.60;;;;;;5047150;28;20507;-65
2023/09/11 11:01:38;;;;;;;;;;;20.20;58.00;;;;;;5048828;28;20245;-65
2023/09/11 11:04:05;;;;;;;;;;;20.20;58.20;;;;;;5044646;28;20285;-65
2023/09/11 11:06:33;;;;;;;;;;;20.20;58.80;;;;;;5042119;28;19936;-65
2023/09/11 11:09:00;;;;;;;;;;;20.30;58.60;;;;;;5046243;28;19932;-66
2023/09/11 11:11:31;;;;;;;;;;;20.30;58.60;;;;;;5043497;28;19948;-63
2023/09/11 11:14:20;;;;;;;;;;;20.30;58.40;;;;;;5043727;28;19932;-65
2023/09/11 11:16:56;;;;;;;;;;;20.30;58.30;;;;;;5036321;28;20358;-64
2023/09/11 11:19:24;;;;;;;;;;;20.30;58.00;;;;;;5054427;28;20394;-64
2023/09/11 11:21:51;;;;;;;;;;;20.40;58.40;;;;;;5047333;28;19936;-64
2023/09/11 11:24:20;;;;;;;;;;;20.40;58.00;;;;;;5043794;28;20388;-64
2023/09/11 11:26:48;;;;;;;;;;;20.40;58.20;;;;;;5044111;28;20027;-63
2023/09/11 11:29:16;;;;;;;;;;;20.40;58.30;;;;;;5046455;28;19925;-65
2023/09/11 11:31:43;;;;;;;;;;;20.50;58.00;;;;;;5042284;28;20401;-65
2023/09/11 11:34:12;;;;;;;;;;;20.50;58.00;;;;;;5045751;28;19931;-65
2023/09/11 11:36:40;;;;;;;;;;;20.50;58.00;;;;;;5044009;28;20007;-64
2023/09/11 11:39:07;;;;;;;;;;;20.50;58.50;;;;;;5045355;28;20053;-65
2023/09/11 11:41:36;;;;;;;;;;;20.60;58.60;;;;;;5042543;28;19933;-64
2023/09/11 11:44:04;;;;;;;;;;;20.60;58.30;;;;;;5042495;28;19928;-64
2023/09/11 11:46:35;;;;;;;;;;;20.60;58.20;;;;;;5044958;28;19940;-64
2023/09/11 11:49:02;;;;;;;;;;;20.70;58.60;;;;;;5043981;28;20304;-64
2023/09/11 11:51:30;;;;;;;;;;;20.70;59.00;;;;;;5041130;28;19933;-61
2023/09/11 11:53:57;;;;;;;;;;;20.80;59.00;;;;;;5041212;28;20027;-60
2023/09/11 11:56:26;;;;;;;;;;;20.80;58.90;;;;;;5039060;28;19940;-60
2023/09/11 11:58:57;;;;;;;;;;;20.80;59.00;;;;;;5044238;28;20011;-64
2023/09/11 12:01:24;;;;;;;;;;;20.80;59.10;;;;;;5044517;28;19936;-62
2023/09/11 12:03:51;;;;;;;;;;;20.80;59.10;;;;;;5042054;28;19924;-63
2023/09/11 12:06:19;;;;;;;;;;;20.90;59.80;;;;;;5043488;28;20401;-61
2023/09/11 12:08:47;;;;;;;;;;;20.90;59.80;;;;;;5043326;28;20397;-61
2023/09/11 12:11:15;;;;;;;;;;;20.90;58.80;;;;;;5042760;28;19925;-61
2023/09/11 12:13:42;;;;;;;;;;;21.00;59.30;;;;;;5046910;28;19939;-60
2023/09/11 12:16:19;;;;;;;;;;;21.00;59.50;;;;;;5041072;28;19933;-61
2023/09/11 12:18:47;;;;;;;;;;;21.10;59.60;;;;;;5042261;28;19933;-64
2023/09/11 12:21:14;;;;;;;;;;;21.10;59.30;;;;;;5044766;28;19941;-58
2023/09/11 12:23:41;;;;;;;;;;;21.20;59.50;;;;;;5046214;28;19925;-60
2023/09/11 12:26:08;;;;;;;;;;;21.20;59.50;;;;;;5029366;28;19936;-61
2023/09/11 12:28:35;;;;;;;;;;;21.20;59.30;;;;;;5041691;28;19971;-60
2023/09/11 12:31:03;;;;;;;;;;;21.30;58.40;;;;;;5041043;28;19936;-60
2023/09/11 12:33:36;;;;;;;;;;;21.30;58.40;;;;;;5042486;28;19933;-59
2023/09/11 12:36:04;;;;;;;;;;;21.40;58.70;;;;;;5046822;28;20344;-59
2023/09/11 12:38:31;;;;;;;;;;;21.40;59.00;;;;;;5040716;28;20032;-61
2023/09/11 12:40:58;;;;;;;;;;;21.40;58.70;;;;;;5047847;28;20311;-61
2023/09/11 12:43:25;;;;;;;;;;;21.40;59.30;;;;;;5048931;28;20435;-62
2023/09/11 12:45:53;;;;;;;;;;;21.40;59.00;;;;;;5046985;28;19932;-64
2023/09/11 12:48:21;;;;;;;;;;;21.50;59.30;;;;;;5047603;28;20258;-62
2023/09/11 12:50:48;;;;;;;;;;;21.50;59.30;;;;;;5053276;28;20002;-63
2023/09/11 12:53:16;;;;;;;;;;;21.50;58.80;;;;;;5048294;28;20288;-63
2023/09/11 12:55:46;;;;;;;;;;;21.50;58.70;;;;;;5044087;28;19932;-62
2023/09/11 12:58:15;;;;;;;;;;;21.60;58.30;;;;;;5040366;28;20027;-62
2023/09/11 13:00:46;;;;;;;;;;;21.60;58.50;;;;;;5045196;28;19968;-61
2023/09/11 13:03:22;;;;;;;;;;;21.60;59.10;;;;;;5054201;28;19936;-63
2023/09/11 13:05:50;;;;;;;;;;;21.60;59.00;;;;;;5042055;28;19980;-63
2023/09/11 13:08:17;;;;;;;;;;;21.60;58.90;;;;;;5044703;28;20014;-68
2023/09/11 13:10:45;;;;;;;;;;;21.60;58.40;;;;;;5026886;28;19936;-62
2023/09/11 13:13:12;;;;;;;;;;;21.60;58.40;;;;;;5042818;28;19929;-61
2023/09/11 13:15:55;;;;;;;;;;;21.60;58.70;;;;;;5041083;28;20273;-60
2023/09/11 13:18:22;;;;;;;;;;;21.60;57.90;;;;;;5042551;28;20061;-62
2023/09/11 13:20:49;;;;;;;;;;;21.60;58.40;;;;;;5040992;28;19928;-61
2023/09/11 13:23:16;;;;;;;;;;;21.60;58.20;;;;;;5038524;28;20443;-61
2023/09/11 13:25:44;;;;;;;;;;;21.60;57.60;;;;;;5045887;28;22198;-60
2023/09/11 13:28:12;;;;;;;;;;;21.60;57.40;;;;;;5038926;28;19928;-60
2023/09/11 13:30:39;;;;;;;;;;;21.60;58.60;;;;;;5044841;28;19976;-61
2023/09/11 13:33:06;;;;;;;;;;;21.60;58.10;;;;;;5041450;28;19935;-60
2023/09/11 13:35:33;;;;;;;;;;;21.60;57.40;;;;;;5047084;28;19931;-60
2023/09/11 13:38:02;;;;;;;;;;;21.70;57.90;;;;;;5045795;28;20015;-63
2023/09/11 13:40:29;;;;;;;;;;;21.70;58.20;;;;;;5044991;28;20403;-62
2023/09/11 13:42:56;;;;;;;;;;;21.60;57.30;;;;;;5045673;28;19928;-61
2023/09/11 13:45:23;;;;;;;;;;;21.60;58.20;;;;;;5040941;28;19928;-63
2023/09/11 13:47:52;;;;;;;;;;;21.60;58.20;;;;;;5042904;28;19939;-64
2023/09/11 13:50:20;;;;;;;;;;;21.60;57.20;;;;;;5043349;28;19929;-63
2023/09/11 13:52:47;;;;;;;;;;;21.60;57.90;;;;;;5045026;28;20030;-61
2023/09/11 13:55:13;;;;;;;;;;;21.60;57.90;;;;;;5047857;28;19967;-60
2023/09/11 13:57:40;;;;;;;;;;;21.60;57.80;;;;;;5045061;28;20008;-59
2023/09/11 14:00:08;;;;;;;;;;;21.60;57.70;;;;;;5045871;28;19939;-62
2023/09/11 14:02:35;;;;;;;;;;;21.60;57.90;;;;;;5045455;28;19939;-62
2023/09/11 14:05:03;;;;;;;;;;;21.60;58.80;;;;;;5045151;28;20007;-62
2023/09/11 14:07:30;;;;;;;;;;;21.70;66.60;;;;;;5045058;28;20339;-61
2023/09/11 14:09:57;;;;;;;;;;;21.90;70.70;;;;;;5049249;28;19929;-61
2023/09/11 14:12:24;;;;;;;;;;;22.10;72.40;;;;;;5047385;28;19933;-62
2023/09/11 14:14:51;;;;;;;;;;;22.40;72.80;;;;;;5046262;28;20388;-61
2023/09/11 14:17:18;;;;;;;;;;;22.60;73.30;;;;;;5043280;28;19940;-61
2023/09/11 14:19:45;;;;;;;;;;;22.80;73.40;;;;;;5030598;28;19964;-61
2023/09/11 14:22:12;;;;;;;;;;;23.00;73.30;;;;;;5050222;28;20288;-59